createdAt,value
2019-05-21T00:02:02.689Z,14.10
2019-05-21T00:04:31.613Z,14.10
2019-05-21T00:07:00.662Z,14.00
2019-05-21T00:09:29.686Z,14.10
2019-05-21T00:11:58.544Z,14.10
2019-05-21T00:14:27.504Z,14.00
2019-05-21T00:16:56.546Z,14.10
2019-05-21T00:19:25.478Z,14.10
2019-05-21T00:21:54.505Z,14.10
2019-05-21T00:24:23.364Z,14.10
2019-05-21T00:26:52.370Z,14.10
2019-05-21T00:29:57.784Z,14.10
2019-05-21T00:33:02.798Z,14.10
2019-05-21T00:36:08.019Z,14.10
2019-05-21T00:39:12.892Z,14.10
2019-05-21T00:42:06.374Z,14.10
2019-05-21T00:44:38.521Z,14.00
2019-05-21T00:47:09.140Z,14.00
2019-05-21T00:49:38.146Z,14.10
2019-05-21T00:52:09.193Z,14.10
2019-05-21T00:54:38.703Z,14.10
2019-05-21T00:57:07.714Z,14.10
2019-05-21T00:59:36.677Z,14.10
2019-05-21T01:02:05.942Z,14.10
2019-05-21T01:04:34.954Z,14.10
2019-05-21T01:07:03.957Z,14.10
2019-05-21T01:09:33.158Z,14.10
2019-05-21T01:12:02.215Z,14.00
2019-05-21T01:14:31.162Z,14.10
2019-05-21T01:17:00.187Z,14.10
2019-05-21T01:19:29.199Z,14.00
2019-05-21T01:21:58.141Z,14.10
2019-05-21T01:24:27.234Z,14.10
2019-05-21T01:26:56.289Z,14.10
2019-05-21T01:29:25.341Z,14.10
2019-05-21T01:31:54.377Z,14.00
2019-05-21T01:34:23.393Z,14.00
2019-05-21T01:36:52.413Z,14.00
2019-05-21T01:39:21.444Z,14.00
2019-05-21T01:41:50.563Z,14.00
2019-05-21T01:44:19.595Z,14.00
2019-05-21T01:46:48.594Z,14.00
2019-05-21T01:49:17.601Z,13.90
2019-05-21T01:51:46.542Z,13.90
2019-05-21T01:54:15.589Z,14.00
2019-05-21T01:56:44.603Z,13.90
2019-05-21T01:59:13.625Z,14.00
2019-05-21T02:01:42.653Z,13.90
2019-05-21T02:04:11.666Z,14.00
2019-05-21T02:06:40.677Z,14.00
2019-05-21T02:09:09.659Z,14.00
2019-05-21T02:11:38.677Z,13.90
2019-05-21T02:14:07.697Z,13.80
2019-05-21T02:16:36.881Z,13.80
2019-05-21T02:19:05.976Z,13.80
2019-05-21T02:21:34.986Z,13.80
2019-05-21T02:24:04.032Z,13.80
2019-05-21T02:26:32.969Z,13.80
2019-05-21T02:29:02.071Z,13.70
2019-05-21T02:31:31.453Z,13.70
2019-05-21T02:34:00.334Z,13.70
2019-05-21T02:36:30.838Z,13.70
2019-05-21T02:38:59.850Z,13.70
2019-05-21T02:41:28.871Z,13.80
2019-05-21T02:43:57.881Z,13.70
2019-05-21T02:46:26.901Z,13.80
2019-05-21T02:48:55.854Z,13.80
2019-05-21T02:51:24.925Z,13.70
2019-05-21T02:53:53.951Z,13.70
2019-05-21T02:56:22.884Z,13.70
2019-05-21T02:58:51.738Z,13.70
2019-05-21T03:01:30.261Z,13.70
2019-05-21T03:03:59.300Z,13.70
2019-05-21T03:06:28.316Z,13.70
2019-05-21T03:08:57.350Z,13.70
2019-05-21T03:11:26.287Z,13.70
2019-05-21T03:13:55.357Z,13.60
2019-05-21T03:16:24.335Z,13.60
2019-05-21T03:18:53.710Z,13.60
2019-05-21T03:21:22.637Z,13.70
2019-05-21T03:23:51.774Z,13.70
2019-05-21T03:26:20.802Z,13.60
2019-05-21T03:28:49.734Z,13.60
2019-05-21T03:31:19.801Z,13.60
2019-05-21T03:33:48.851Z,13.70
2019-05-21T03:36:32.801Z,13.70
2019-05-21T03:38:48.634Z,13.70
2019-05-21T03:41:17.711Z,13.60
2019-05-21T03:43:47.013Z,13.70
2019-05-21T03:46:15.965Z,13.70
2019-05-21T03:48:44.971Z,13.60
2019-05-21T03:51:13.977Z,13.60
2019-05-21T03:53:43.028Z,13.70
2019-05-21T03:56:12.021Z,13.70
2019-05-21T03:58:41.025Z,13.60
2019-05-21T04:01:09.978Z,13.60
2019-05-21T04:03:38.905Z,13.60
2019-05-21T04:06:07.919Z,13.60
2019-05-21T04:08:37.007Z,13.60
2019-05-21T04:11:05.881Z,13.60
2019-05-21T04:13:34.942Z,13.60
2019-05-21T04:16:23.274Z,13.60
2019-05-21T04:18:56.127Z,13.50
2019-05-21T04:21:25.057Z,13.50
2019-05-21T04:23:54.166Z,13.60
2019-05-21T04:26:23.199Z,13.60
2019-05-21T04:28:52.199Z,13.50
2019-05-21T04:31:21.277Z,13.50
2019-05-21T04:33:50.240Z,13.60
2019-05-21T04:36:19.264Z,13.60
2019-05-21T04:38:48.353Z,13.60
2019-05-21T04:41:17.423Z,13.60
2019-05-21T04:43:46.457Z,13.50
2019-05-21T04:46:15.617Z,13.60
2019-05-21T04:48:44.589Z,13.50
2019-05-21T04:51:14.254Z,13.50
2019-05-21T04:53:43.310Z,13.50
2019-05-21T04:56:12.481Z,13.40
2019-05-21T04:58:41.434Z,13.30
2019-05-21T05:01:10.454Z,13.30
2019-05-21T05:03:39.560Z,13.30
2019-05-21T05:06:08.555Z,13.30
2019-05-21T05:08:37.672Z,13.30
2019-05-21T05:11:06.604Z,13.40
2019-05-21T05:13:35.625Z,13.40
2019-05-21T05:16:04.725Z,13.30
2019-05-21T05:18:33.720Z,13.30
2019-05-21T05:21:02.767Z,13.30
2019-05-21T05:23:31.805Z,13.30
2019-05-21T05:26:00.897Z,13.30
2019-05-21T05:28:29.805Z,13.30
2019-05-21T05:30:58.710Z,13.30
2019-05-21T05:33:28.583Z,13.30
2019-05-21T05:35:57.589Z,13.30
2019-05-21T05:38:34.094Z,13.30
2019-05-21T05:41:08.011Z,13.30
2019-05-21T05:43:37.161Z,13.30
2019-05-21T05:46:06.166Z,13.30
2019-05-21T05:48:39.757Z,13.30
2019-05-21T05:51:08.769Z,13.20
2019-05-21T05:53:56.987Z,13.30
2019-05-21T05:56:26.737Z,13.20
2019-05-21T05:58:57.401Z,13.30
2019-05-21T06:01:27.740Z,13.20
2019-05-21T06:03:56.809Z,13.20
2019-05-21T06:06:25.877Z,13.10
2019-05-21T06:08:54.847Z,13.20
2019-05-21T06:11:23.853Z,13.20
2019-05-21T06:13:52.811Z,13.20
2019-05-21T06:16:21.833Z,13.30
2019-05-21T06:18:50.988Z,13.30
2019-05-21T06:21:19.958Z,13.30
2019-05-21T06:23:49.002Z,13.30
2019-05-21T06:26:18.085Z,13.30
2019-05-21T06:28:47.269Z,13.30
2019-05-21T06:31:16.294Z,13.30
2019-05-21T06:33:45.239Z,13.30
2019-05-21T06:36:14.200Z,13.30
2019-05-21T06:38:43.298Z,13.30
2019-05-21T06:41:12.349Z,13.30
2019-05-21T06:43:41.270Z,13.20
2019-05-21T06:46:10.317Z,13.30
2019-05-21T06:48:39.429Z,13.30
2019-05-21T06:51:08.420Z,13.20
2019-05-21T06:53:37.377Z,13.20
2019-05-21T06:56:07.521Z,13.30
2019-05-21T06:58:37.371Z,13.30
2019-05-21T07:01:06.375Z,13.30
2019-05-21T07:03:35.319Z,13.30
2019-05-21T07:06:04.352Z,13.30
2019-05-21T07:08:34.970Z,13.30
2019-05-21T07:11:04.429Z,13.30
2019-05-21T07:13:33.544Z,13.30
2019-05-21T07:16:02.585Z,13.40
2019-05-21T07:18:31.645Z,13.40
2019-05-21T07:21:00.678Z,13.30
2019-05-21T07:23:29.800Z,13.20
2019-05-21T07:25:58.901Z,13.20
2019-05-21T07:28:28.024Z,13.30
2019-05-21T07:30:57.494Z,13.20
2019-05-21T07:33:26.430Z,13.30
2019-05-21T07:35:56.282Z,13.30
2019-05-21T07:38:25.233Z,13.40
2019-05-21T07:40:54.244Z,13.30
2019-05-21T07:43:23.202Z,13.30
2019-05-21T07:45:52.243Z,13.30
2019-05-21T07:48:21.182Z,13.30
2019-05-21T07:50:50.285Z,13.30
2019-05-21T07:53:19.342Z,13.30
2019-05-21T07:55:48.360Z,13.30
2019-05-21T07:58:17.298Z,13.30
2019-05-21T08:00:46.334Z,13.40
2019-05-21T08:03:15.360Z,13.40
2019-05-21T08:05:44.340Z,13.40
2019-05-21T08:08:13.449Z,13.50
2019-05-21T08:10:42.585Z,13.40
2019-05-21T08:13:12.006Z,13.50
2019-05-21T08:15:41.140Z,13.50
2019-05-21T08:18:10.065Z,13.40
2019-05-21T08:20:39.095Z,13.40
2019-05-21T08:23:08.190Z,13.40
2019-05-21T08:25:37.310Z,13.50
2019-05-21T08:28:06.400Z,13.50
2019-05-21T08:30:35.518Z,13.50
2019-05-21T08:33:04.544Z,13.50
2019-05-21T08:35:33.570Z,13.50
2019-05-21T08:38:06.495Z,13.40
2019-05-21T08:40:33.397Z,13.50
2019-05-21T08:43:02.480Z,13.50
2019-05-21T08:45:31.602Z,13.50
2019-05-21T08:48:00.622Z,13.40
2019-05-21T08:50:29.676Z,13.40
2019-05-21T08:52:58.782Z,13.30
2019-05-21T08:55:27.857Z,13.30
2019-05-21T08:58:06.956Z,13.40
2019-05-21T09:00:28.152Z,13.50
2019-05-21T09:02:57.288Z,13.50
2019-05-21T09:05:26.397Z,13.50
2019-05-21T09:07:55.497Z,13.50
2019-05-21T09:10:24.725Z,13.50
2019-05-21T09:12:53.758Z,13.50
2019-05-21T09:15:23.100Z,13.50
2019-05-21T09:17:52.171Z,13.50
2019-05-21T09:20:21.381Z,13.50
2019-05-21T09:22:50.475Z,13.50
2019-05-21T09:25:19.582Z,13.50
2019-05-21T09:27:48.662Z,13.60
2019-05-21T09:30:19.499Z,13.60
2019-05-21T09:32:48.444Z,13.60
2019-05-21T09:35:17.478Z,13.60
2019-05-21T09:37:46.552Z,13.50
2019-05-21T09:40:16.430Z,13.60
2019-05-21T09:42:45.722Z,13.60
2019-05-21T09:45:15.434Z,13.60
2019-05-21T09:47:44.534Z,13.60
2019-05-21T09:50:13.865Z,13.60
2019-05-21T09:52:42.869Z,13.60
2019-05-21T09:55:12.250Z,13.60
2019-05-21T09:57:51.707Z,13.70
2019-05-21T10:00:39.897Z,13.70
2019-05-21T10:03:11.444Z,13.60
2019-05-21T10:05:40.742Z,13.70
2019-05-21T10:08:09.708Z,13.70
2019-05-21T10:10:38.671Z,13.60
2019-05-21T10:13:07.633Z,13.60
2019-05-21T10:15:36.569Z,13.70
2019-05-21T10:18:05.791Z,13.70
2019-05-21T10:20:34.814Z,13.70
2019-05-21T10:23:03.828Z,13.70
2019-05-21T10:25:32.869Z,13.70
2019-05-21T10:28:01.900Z,13.80
2019-05-21T10:30:30.950Z,13.90
2019-05-21T10:33:00.476Z,13.90
2019-05-21T10:35:30.732Z,14.00
2019-05-21T10:37:59.709Z,13.90
2019-05-21T10:40:28.778Z,13.90
2019-05-21T10:42:57.791Z,13.90
2019-05-21T10:45:26.794Z,13.90
2019-05-21T10:47:55.883Z,14.00
2019-05-21T10:50:25.036Z,14.00
2019-05-21T10:52:54.055Z,14.00
2019-05-21T10:55:23.110Z,14.00
2019-05-21T10:57:52.233Z,14.00
2019-05-21T11:00:23.151Z,14.00
2019-05-21T11:03:03.330Z,14.00
2019-05-21T11:05:35.242Z,13.90
2019-05-21T11:08:22.858Z,14.00
2019-05-21T11:10:35.162Z,14.00
2019-05-21T11:13:04.228Z,13.90
2019-05-21T11:15:33.325Z,14.00
2019-05-21T11:18:10.367Z,14.00
2019-05-21T11:20:33.178Z,13.90
2019-05-21T11:23:02.186Z,13.90
2019-05-21T11:25:31.150Z,13.90
2019-05-21T11:28:00.161Z,13.80
2019-05-21T11:30:29.287Z,13.80
2019-05-21T11:32:58.497Z,13.80
2019-05-21T11:35:27.579Z,13.80
2019-05-21T11:37:56.529Z,13.80
2019-05-21T11:40:25.935Z,13.90
2019-05-21T11:42:54.979Z,13.90
2019-05-21T11:45:32.257Z,14.00
2019-05-21T11:47:55.069Z,14.00
2019-05-21T11:50:24.061Z,14.10
2019-05-21T11:52:53.123Z,14.00
2019-05-21T11:55:22.197Z,14.00
2019-05-21T11:57:51.216Z,14.00
2019-05-21T12:00:22.010Z,13.90
2019-05-21T12:02:50.955Z,13.90
2019-05-21T12:05:20.279Z,13.90
2019-05-21T12:07:49.605Z,14.00
2019-05-21T12:10:18.845Z,14.10
2019-05-21T12:12:47.825Z,14.00
2019-05-21T12:15:17.144Z,14.00
2019-05-21T12:17:46.105Z,14.00
2019-05-21T12:20:16.359Z,13.90
2019-05-21T12:22:45.362Z,13.90
2019-05-21T12:25:14.459Z,13.90
2019-05-21T12:27:43.483Z,13.90
2019-05-21T12:30:13.838Z,13.90
2019-05-21T12:32:42.822Z,14.00
2019-05-21T12:35:11.960Z,14.00
2019-05-21T12:37:41.258Z,14.00
2019-05-21T12:40:10.518Z,14.00
2019-05-21T12:42:39.500Z,14.00
2019-05-21T12:45:08.795Z,14.00
2019-05-21T12:47:37.817Z,13.90
2019-05-21T12:50:08.314Z,14.00
2019-05-21T12:52:37.413Z,14.00
2019-05-21T12:55:06.682Z,14.00
2019-05-21T12:57:35.762Z,13.90
2019-05-21T13:00:06.913Z,14.00
2019-05-21T13:02:35.950Z,14.00
2019-05-21T13:05:05.343Z,14.10
2019-05-21T13:07:34.438Z,14.10
2019-05-21T13:10:03.478Z,14.10
2019-05-21T13:12:32.532Z,14.10
2019-05-21T13:15:01.832Z,14.20
2019-05-21T13:17:30.861Z,14.20
2019-05-21T13:20:00.162Z,14.20
2019-05-21T13:22:29.249Z,14.20
2019-05-21T13:24:58.422Z,14.30
2019-05-21T13:27:27.430Z,14.30
2019-05-21T13:29:56.443Z,14.30
2019-05-21T13:32:25.403Z,14.40
2019-05-21T13:34:54.380Z,14.40
2019-05-21T13:37:23.391Z,14.40
2019-05-21T13:39:52.522Z,14.40
2019-05-21T13:42:21.662Z,14.40
2019-05-21T13:44:50.676Z,14.40
2019-05-21T13:47:19.785Z,14.40
2019-05-21T13:49:48.800Z,14.50
2019-05-21T13:52:17.813Z,14.50
2019-05-21T13:54:46.770Z,14.50
2019-05-21T13:57:15.950Z,14.50
2019-05-21T13:59:44.898Z,14.50
2019-05-21T14:02:14.072Z,14.50
2019-05-21T14:04:43.200Z,14.50
2019-05-21T14:07:12.320Z,14.40
2019-05-21T14:09:41.338Z,14.40
2019-05-21T14:12:11.131Z,14.50
2019-05-21T14:14:40.082Z,14.40
2019-05-21T14:17:09.310Z,14.50
2019-05-21T14:19:38.333Z,14.40
2019-05-21T14:22:07.346Z,14.50
2019-05-21T14:24:36.500Z,14.40
2019-05-21T14:27:06.156Z,14.50
2019-05-21T14:29:35.269Z,14.50
2019-05-21T14:32:04.494Z,14.50
2019-05-21T14:34:33.467Z,14.60
2019-05-21T14:37:02.611Z,14.60
2019-05-21T14:39:37.106Z,14.50
2019-05-21T14:42:06.203Z,14.50
2019-05-21T14:44:35.428Z,14.50
2019-05-21T14:47:04.632Z,14.60
2019-05-21T14:49:33.784Z,14.60
2019-05-21T14:52:03.614Z,14.60
2019-05-21T14:54:32.691Z,14.60
2019-05-21T14:57:04.042Z,14.70
2019-05-21T14:59:33.133Z,14.70
2019-05-21T15:02:02.295Z,14.70
2019-05-21T15:04:31.456Z,14.80
2019-05-21T15:07:00.749Z,14.80
2019-05-21T15:09:29.888Z,14.70
2019-05-21T15:11:58.965Z,14.90
2019-05-21T15:14:28.104Z,14.90
2019-05-21T15:16:57.271Z,15.00
2019-05-21T15:19:26.360Z,15.00
2019-05-21T15:21:55.819Z,15.00
2019-05-21T15:24:25.266Z,15.00
2019-05-21T15:26:54.362Z,15.10
2019-05-21T15:29:23.484Z,15.20
2019-05-21T15:31:53.319Z,15.20
2019-05-21T15:34:24.704Z,15.20
2019-05-21T15:36:53.687Z,15.20
2019-05-21T15:39:22.798Z,15.10
2019-05-21T15:41:51.785Z,15.10
2019-05-21T15:44:20.895Z,15.10
2019-05-21T15:46:51.323Z,15.20
2019-05-21T15:49:35.022Z,15.30
2019-05-21T15:51:51.605Z,15.20
2019-05-21T15:54:20.684Z,15.20
2019-05-21T15:56:49.741Z,15.30
2019-05-21T15:59:18.860Z,15.30
2019-05-21T16:01:48.199Z,15.30
2019-05-21T16:04:17.315Z,15.40
2019-05-21T16:06:46.386Z,15.30
2019-05-21T16:09:15.537Z,15.30
2019-05-21T16:11:44.650Z,15.30
2019-05-21T16:14:14.058Z,15.30
2019-05-21T16:16:43.127Z,15.30
2019-05-21T16:19:12.182Z,15.30
2019-05-21T16:21:41.694Z,15.20
2019-05-21T16:24:10.903Z,15.20
2019-05-21T16:26:40.447Z,15.10
2019-05-21T16:29:09.575Z,15.10
2019-05-21T16:31:38.646Z,15.00
2019-05-21T16:34:07.631Z,15.00
2019-05-21T16:36:36.726Z,15.10
2019-05-21T16:39:07.327Z,15.00
2019-05-21T16:41:44.948Z,15.00
2019-05-21T16:44:07.241Z,14.90
2019-05-21T16:46:36.583Z,14.90
2019-05-21T16:49:05.660Z,14.80
2019-05-21T16:51:34.959Z,14.90
2019-05-21T16:54:04.215Z,15.00
2019-05-21T16:56:33.343Z,15.00
2019-05-21T16:59:02.478Z,14.90
2019-05-21T17:01:32.104Z,15.00
2019-05-21T17:04:01.237Z,14.80
2019-05-21T17:06:30.626Z,14.80
2019-05-21T17:09:00.030Z,14.80
2019-05-21T17:11:29.131Z,14.90
2019-05-21T17:13:58.530Z,15.00
2019-05-21T17:16:27.702Z,14.90
2019-05-21T17:18:57.010Z,14.90
2019-05-21T17:21:26.070Z,14.90
2019-05-21T17:23:55.244Z,14.90
2019-05-21T17:26:24.751Z,15.00
2019-05-21T17:28:53.914Z,14.90
2019-05-21T17:31:23.071Z,14.90
2019-05-21T17:33:52.326Z,14.90
2019-05-21T17:36:21.995Z,14.80
2019-05-21T17:38:51.119Z,14.90
2019-05-21T17:41:20.818Z,14.90
2019-05-21T17:43:49.979Z,14.90
2019-05-21T17:46:19.222Z,14.80
2019-05-21T17:48:48.405Z,14.80
2019-05-21T17:51:17.540Z,14.80
2019-05-21T17:53:46.699Z,14.80
2019-05-21T17:56:15.787Z,14.90
2019-05-21T17:58:44.881Z,14.80
2019-05-21T18:01:16.678Z,14.70
2019-05-21T18:03:46.318Z,14.80
2019-05-21T18:06:16.258Z,14.70
2019-05-21T18:08:45.470Z,14.70
2019-05-21T18:11:15.884Z,14.60
2019-05-21T18:13:48.041Z,14.70
2019-05-21T18:16:17.714Z,14.60
2019-05-21T18:18:47.421Z,14.60
2019-05-21T18:21:16.995Z,14.50
2019-05-21T18:23:46.279Z,14.50
2019-05-21T18:26:15.421Z,14.50
2019-05-21T18:28:44.597Z,14.40
2019-05-21T18:31:14.151Z,14.50
2019-05-21T18:33:44.691Z,14.50
2019-05-21T18:36:13.818Z,14.50
2019-05-21T18:38:43.294Z,14.50
2019-05-21T18:41:12.342Z,14.50
2019-05-21T18:43:41.683Z,14.50
2019-05-21T18:46:10.764Z,14.50
2019-05-21T18:48:39.830Z,14.40
2019-05-21T18:51:08.982Z,14.40
2019-05-21T18:53:38.063Z,14.50
2019-05-21T18:56:07.211Z,14.50
2019-05-21T18:58:36.289Z,14.60
2019-05-21T19:01:05.411Z,14.50
2019-05-21T19:03:34.604Z,14.40
2019-05-21T19:06:03.941Z,14.30
2019-05-21T19:08:33.304Z,14.30
2019-05-21T19:11:02.372Z,14.30
2019-05-21T19:13:31.443Z,14.30
2019-05-21T19:16:00.894Z,14.30
2019-05-21T19:18:29.939Z,14.30
2019-05-21T19:20:59.334Z,14.40
2019-05-21T19:23:28.904Z,14.40
2019-05-21T19:25:58.227Z,14.30
2019-05-21T19:28:27.650Z,14.30
2019-05-21T19:30:56.742Z,14.40
2019-05-21T19:33:25.872Z,14.30
2019-05-21T19:35:54.969Z,14.30
2019-05-21T19:38:24.082Z,14.40
2019-05-21T19:40:53.134Z,14.40
2019-05-21T19:43:22.392Z,14.40
2019-05-21T19:45:51.469Z,14.30
2019-05-21T19:48:20.680Z,14.30
2019-05-21T19:50:49.825Z,14.30
2019-05-21T19:53:18.900Z,14.30
2019-05-21T19:55:51.391Z,14.40
2019-05-21T19:58:20.384Z,14.40
2019-05-21T20:00:53.606Z,14.30
2019-05-21T20:03:23.507Z,14.30
2019-05-21T20:05:52.571Z,14.30
2019-05-21T20:08:21.906Z,14.30
2019-05-21T20:10:51.099Z,14.30
2019-05-21T20:13:31.817Z,14.30
2019-05-21T20:15:51.475Z,14.30
2019-05-21T20:18:21.146Z,14.10
2019-05-21T20:20:50.677Z,14.20
2019-05-21T20:23:21.295Z,14.20
2019-05-21T20:25:56.364Z,14.20
2019-05-21T20:28:22.451Z,14.20
2019-05-21T20:30:51.690Z,14.20
2019-05-21T20:33:21.113Z,14.10
2019-05-21T20:35:52.398Z,14.10
2019-05-21T20:38:28.341Z,14.10
2019-05-21T20:40:58.675Z,14.20
2019-05-21T20:43:28.341Z,14.10
2019-05-21T20:45:58.702Z,14.10
2019-05-21T20:48:32.103Z,14.10
2019-05-21T20:51:02.164Z,14.10
2019-05-21T20:53:31.305Z,14.10
2019-05-21T20:56:00.500Z,14.10
2019-05-21T20:58:29.716Z,14.00
2019-05-21T21:01:01.886Z,14.00
2019-05-21T21:03:31.874Z,14.00
2019-05-21T21:06:01.684Z,14.10
2019-05-21T21:08:32.447Z,14.10
2019-05-21T21:11:01.529Z,14.20
2019-05-21T21:13:31.557Z,14.10
2019-05-21T21:16:00.578Z,14.10
2019-05-21T21:18:30.139Z,14.20
2019-05-21T21:20:59.225Z,14.10
2019-05-21T21:23:30.108Z,14.10
2019-05-21T21:26:00.138Z,14.00
2019-05-21T21:28:29.185Z,14.00
2019-05-21T21:30:58.481Z,14.00
2019-05-21T21:33:27.503Z,14.00
2019-05-21T21:35:57.847Z,13.90
2019-05-21T21:38:28.529Z,13.90
2019-05-21T21:40:57.543Z,13.80
2019-05-21T21:43:26.703Z,13.90
2019-05-21T21:45:55.666Z,13.90
2019-05-21T21:48:25.065Z,13.90
2019-05-21T21:50:54.293Z,13.90
2019-05-21T21:53:24.390Z,13.90
2019-05-21T21:55:53.459Z,13.90
2019-05-21T21:58:23.090Z,13.90
2019-05-21T22:01:43.150Z,13.90
2019-05-21T22:04:15.885Z,13.90
2019-05-21T22:06:46.916Z,13.90
2019-05-21T22:09:23.564Z,14.00
2019-05-21T22:11:55.299Z,13.90
2019-05-21T22:14:24.734Z,13.90
2019-05-21T22:16:53.777Z,13.90
2019-05-21T22:19:23.038Z,13.80
2019-05-21T22:21:52.935Z,13.80
2019-05-21T22:24:22.559Z,13.80
2019-05-21T22:26:51.926Z,13.80
2019-05-21T22:29:21.679Z,13.80
2019-05-21T22:31:51.294Z,13.80
2019-05-21T22:34:20.361Z,13.80
2019-05-21T22:36:49.363Z,13.70
2019-05-21T22:39:23.047Z,13.60
2019-05-21T22:41:52.250Z,13.60
2019-05-21T22:44:21.294Z,13.60
2019-05-21T22:46:50.906Z,13.70
2019-05-21T22:49:19.886Z,13.70
2019-05-21T22:51:48.992Z,13.70
2019-05-21T22:54:19.504Z,13.80
2019-05-21T22:56:48.721Z,13.80
2019-05-21T22:59:17.715Z,13.80
2019-05-21T23:01:47.703Z,13.80
2019-05-21T23:04:18.221Z,13.80
2019-05-21T23:06:47.546Z,13.80
2019-05-21T23:09:16.689Z,13.80
2019-05-21T23:11:45.665Z,13.80
2019-05-21T23:14:14.845Z,13.70
2019-05-21T23:16:43.955Z,13.80
2019-05-21T23:19:13.024Z,13.80
2019-05-21T23:21:43.813Z,13.80
2019-05-21T23:24:16.545Z,13.70
2019-05-21T23:26:47.153Z,13.80
2019-05-21T23:29:16.572Z,13.70
2019-05-21T23:31:46.245Z,13.70
2019-05-21T23:34:16.145Z,13.60
2019-05-21T23:36:48.238Z,13.70
2019-05-21T23:39:22.217Z,13.70
2019-05-21T23:41:51.220Z,13.70
2019-05-21T23:44:20.434Z,13.70
2019-05-21T23:46:49.742Z,13.70
2019-05-21T23:49:19.683Z,13.70
2019-05-21T23:51:48.771Z,13.70
2019-05-21T23:54:19.639Z,13.70
2019-05-21T23:56:49.524Z,13.70
2019-05-21T23:59:19.102Z,13.70
